sensor_id;sensor_type;location;lat;lon;timestamp;temperature;humidity
5972;DHT22;3012;49.944;8.454;2024-03-17T00:00:48;9.10;99.90
5972;DHT22;3012;49.944;8.454;2024-03-17T00:03:14;9.20;99.90
5972;DHT22;3012;49.944;8.454;2024-03-17T00:05:42;9.00;99.90
5972;DHT22;3012;49.944;8.454;2024-03-17T00:08:09;9.60;99.90
5972;DHT22;3012;49.944;8.454;2024-03-17T00:10:40;9.30;99.90
5972;DHT22;3012;49.944;8.454;2024-03-17T00:13:07;9.20;99.90
5972;DHT22;3012;49.944;8.454;2024-03-17T00:15:35;9.20;99.90
5972;DHT22;3012;49.944;8.454;2024-03-17T00:21:08;9.20;99.90
5972;DHT22;3012;49.944;8.454;2024-03-17T00:23:36;9.40;99.90
5972;DHT22;3012;49.944;8.454;2024-03-17T00:26:05;9.30;99.90
5972;DHT22;3012;49.944;8.454;2024-03-17T00:28:33;9.20;99.90
5972;DHT22;3012;49.944;8.454;2024-03-17T00:30:59;9.10;99.90
5972;DHT22;3012;49.944;8.454;2024-03-17T00:33:26;9.30;99.90
5972;DHT22;3012;49.944;8.454;2024-03-17T00:35:53;9.20;99.90
5972;DHT22;3012;49.944;8.454;2024-03-17T00:38:28;9.30;99.90
5972;DHT22;3012;49.944;8.454;2024-03-17T00:40:55;9.00;99.90
5972;DHT22;3012;49.944;8.454;2024-03-17T00:43:23;8.90;99.90
5972;DHT22;3012;49.944;8.454;2024-03-17T00:45:51;9.20;99.90
5972;DHT22;3012;49.944;8.454;2024-03-17T00:48:19;9.10;99.90
5972;DHT22;3012;49.944;8.454;2024-03-17T00:50:45;8.70;99.90
5972;DHT22;3012;49.944;8.454;2024-03-17T00:53:12;9.10;99.90
5972;DHT22;3012;49.944;8.454;2024-03-17T00:55:40;9.10;99.90
5972;DHT22;3012;49.944;8.454;2024-03-17T00:58:07;8.30;99.90
5972;DHT22;3012;49.944;8.454;2024-03-17T01:00:36;8.60;99.90
5972;DHT22;3012;49.944;8.454;2024-03-17T01:03:23;8.70;99.90
5972;DHT22;3012;49.944;8.454;2024-03-17T01:05:49;9.10;99.90
5972;DHT22;3012;49.944;8.454;2024-03-17T01:08:21;8.80;99.90
5972;DHT22;3012;49.944;8.454;2024-03-17T01:11:03;8.30;99.90
5972;DHT22;3012;49.944;8.454;2024-03-17T01:13:59;9.00;99.90
5972;DHT22;3012;49.944;8.454;2024-03-17T01:16:32;8.70;99.90
5972;DHT22;3012;49.944;8.454;2024-03-17T01:18:59;9.00;99.90
5972;DHT22;3012;49.944;8.454;2024-03-17T01:21:25;8.50;99.90
5972;DHT22;3012;49.944;8.454;2024-03-17T01:23:52;8.50;99.90
5972;DHT22;3012;49.944;8.454;2024-03-17T01:26:20;8.40;99.90
5972;DHT22;3012;49.944;8.454;2024-03-17T01:28:48;8.40;99.90
5972;DHT22;3012;49.944;8.454;2024-03-17T01:31:15;9.00;99.90
5972;DHT22;3012;49.944;8.454;2024-03-17T01:33:44;8.40;99.90
5972;DHT22;3012;49.944;8.454;2024-03-17T01:36:10;7.80;99.90
5972;DHT22;3012;49.944;8.454;2024-03-17T01:38:37;8.50;99.90
5972;DHT22;3012;49.944;8.454;2024-03-17T01:41:04;8.60;99.90
5972;DHT22;3012;49.944;8.454;2024-03-17T01:43:31;8.40;99.90
5972;DHT22;3012;49.944;8.454;2024-03-17T01:45:58;8.50;99.90
5972;DHT22;3012;49.944;8.454;2024-03-17T01:48:27;8.70;99.90
5972;DHT22;3012;49.944;8.454;2024-03-17T01:50:58;8.30;99.90
5972;DHT22;3012;49.944;8.454;2024-03-17T01:53:25;8.10;99.90
5972;DHT22;3012;49.944;8.454;2024-03-17T01:55:55;7.80;99.90
5972;DHT22;3012;49.944;8.454;2024-03-17T01:58:25;8.20;99.90
5972;DHT22;3012;49.944;8.454;2024-03-17T02:00:52;7.80;99.90
5972;DHT22;3012;49.944;8.454;2024-03-17T02:03:18;8.40;99.90
5972;DHT22;3012;49.944;8.454;2024-03-17T02:05:46;8.10;99.90
5972;DHT22;3012;49.944;8.454;2024-03-17T02:08:19;8.10;99.90
5972;DHT22;3012;49.944;8.454;2024-03-17T02:10:52;8.20;99.90
5972;DHT22;3012;49.944;8.454;2024-03-17T02:13:18;7.90;99.90
5972;DHT22;3012;49.944;8.454;2024-03-17T02:15:50;8.00;99.90
5972;DHT22;3012;49.944;8.454;2024-03-17T02:18:16;7.80;99.90
5972;DHT22;3012;49.944;8.454;2024-03-17T02:20:45;7.80;99.90
5972;DHT22;3012;49.944;8.454;2024-03-17T02:23:22;7.60;99.90
5972;DHT22;3012;49.944;8.454;2024-03-17T02:25:58;7.80;99.90
5972;DHT22;3012;49.944;8.454;2024-03-17T02:28:24;7.80;99.90
5972;DHT22;3012;49.944;8.454;2024-03-17T02:30:53;7.70;99.90
5972;DHT22;3012;49.944;8.454;2024-03-17T02:33:20;7.80;99.90
5972;DHT22;3012;49.944;8.454;2024-03-17T02:35:55;7.60;99.90
5972;DHT22;3012;49.944;8.454;2024-03-17T02:38:24;7.20;99.90
5972;DHT22;3012;49.944;8.454;2024-03-17T02:41:23;8.10;99.90
5972;DHT22;3012;49.944;8.454;2024-03-17T02:44:03;7.70;99.90
5972;DHT22;3012;49.944;8.454;2024-03-17T02:46:30;7.70;99.90
5972;DHT22;3012;49.944;8.454;2024-03-17T02:49:04;7.10;99.90
5972;DHT22;3012;49.944;8.454;2024-03-17T02:51:33;7.60;99.90
5972;DHT22;3012;49.944;8.454;2024-03-17T02:54:08;7.60;99.90
5972;DHT22;3012;49.944;8.454;2024-03-17T02:56:35;7.60;99.90
5972;DHT22;3012;49.944;8.454;2024-03-17T02:59:06;7.60;99.90
5972;DHT22;3012;49.944;8.454;2024-03-17T03:01:33;7.20;99.90
5972;DHT22;3012;49.944;8.454;2024-03-17T03:04:03;7.80;99.90
5972;DHT22;3012;49.944;8.454;2024-03-17T03:06:31;7.10;99.90
5972;DHT22;3012;49.944;8.454;2024-03-17T03:08:58;7.30;99.90
5972;DHT22;3012;49.944;8.454;2024-03-17T03:11:29;6.90;99.90
5972;DHT22;3012;49.944;8.454;2024-03-17T03:13:56;7.40;99.90
5972;DHT22;3012;49.944;8.454;2024-03-17T03:16:23;7.00;99.90
5972;DHT22;3012;49.944;8.454;2024-03-17T03:18:50;7.30;99.90
5972;DHT22;3012;49.944;8.454;2024-03-17T03:21:18;7.60;99.90
5972;DHT22;3012;49.944;8.454;2024-03-17T03:23:46;7.30;99.90
5972;DHT22;3012;49.944;8.454;2024-03-17T03:26:20;7.40;99.90
5972;DHT22;3012;49.944;8.454;2024-03-17T03:28:57;7.80;99.90
5972;DHT22;3012;49.944;8.454;2024-03-17T03:31:24;7.20;99.90
5972;DHT22;3012;49.944;8.454;2024-03-17T03:33:52;7.10;99.90
5972;DHT22;3012;49.944;8.454;2024-03-17T03:36:20;6.80;99.90
5972;DHT22;3012;49.944;8.454;2024-03-17T03:38:48;6.90;99.90
5972;DHT22;3012;49.944;8.454;2024-03-17T03:41:16;7.70;99.90
5972;DHT22;3012;49.944;8.454;2024-03-17T03:43:43;7.00;99.90
5972;DHT22;3012;49.944;8.454;2024-03-17T03:46:14;7.00;99.90
5972;DHT22;3012;49.944;8.454;2024-03-17T03:48:41;6.50;99.90
5972;DHT22;3012;49.944;8.454;2024-03-17T03:51:12;6.60;99.90
5972;DHT22;3012;49.944;8.454;2024-03-17T03:53:40;6.60;99.90
5972;DHT22;3012;49.944;8.454;2024-03-17T03:56:08;7.50;99.90
5972;DHT22;3012;49.944;8.454;2024-03-17T03:58:38;6.80;99.90
5972;DHT22;3012;49.944;8.454;2024-03-17T04:01:08;7.00;99.90
5972;DHT22;3012;49.944;8.454;2024-03-17T04:03:38;7.70;99.90
5972;DHT22;3012;49.944;8.454;2024-03-17T04:06:07;7.00;99.90
5972;DHT22;3012;49.944;8.454;2024-03-17T04:08:35;6.90;99.90
5972;DHT22;3012;49.944;8.454;2024-03-17T04:11:10;6.90;99.90
5972;DHT22;3012;49.944;8.454;2024-03-17T04:13:38;6.40;99.90
5972;DHT22;3012;49.944;8.454;2024-03-17T04:16:08;6.90;99.90
5972;DHT22;3012;49.944;8.454;2024-03-17T04:18:37;7.00;99.90
5972;DHT22;3012;49.944;8.454;2024-03-17T04:21:06;6.80;99.90
5972;DHT22;3012;49.944;8.454;2024-03-17T04:23:34;6.60;99.90
5972;DHT22;3012;49.944;8.454;2024-03-17T04:26:01;6.80;99.90
5972;DHT22;3012;49.944;8.454;2024-03-17T04:28:29;6.60;99.90
5972;DHT22;3012;49.944;8.454;2024-03-17T04:31:03;7.10;99.90
5972;DHT22;3012;49.944;8.454;2024-03-17T04:33:34;6.60;99.90
5972;DHT22;3012;49.944;8.454;2024-03-17T04:36:09;6.80;99.90
5972;DHT22;3012;49.944;8.454;2024-03-17T04:38:37;6.40;99.90
5972;DHT22;3012;49.944;8.454;2024-03-17T04:41:15;6.80;99.90
5972;DHT22;3012;49.944;8.454;2024-03-17T04:43:42;6.00;99.90
5972;DHT22;3012;49.944;8.454;2024-03-17T04:46:10;6.50;99.90
5972;DHT22;3012;49.944;8.454;2024-03-17T04:48:39;6.50;99.90
5972;DHT22;3012;49.944;8.454;2024-03-17T04:51:15;6.00;99.90
5972;DHT22;3012;49.944;8.454;2024-03-17T04:53:42;7.00;99.90
5972;DHT22;3012;49.944;8.454;2024-03-17T04:56:08;6.60;99.90
5972;DHT22;3012;49.944;8.454;2024-03-17T04:58:35;6.90;99.90
5972;DHT22;3012;49.944;8.454;2024-03-17T05:01:06;6.50;99.90
5972;DHT22;3012;49.944;8.454;2024-03-17T05:03:34;6.80;99.90
5972;DHT22;3012;49.944;8.454;2024-03-17T05:06:01;6.00;99.90
5972;DHT22;3012;49.944;8.454;2024-03-17T05:08:31;6.50;99.90
5972;DHT22;3012;49.944;8.454;2024-03-17T05:10:58;6.80;99.90
5972;DHT22;3012;49.944;8.454;2024-03-17T05:13:26;6.40;99.90
5972;DHT22;3012;49.944;8.454;2024-03-17T05:15:54;6.30;99.90
5972;DHT22;3012;49.944;8.454;2024-03-17T05:18:21;5.90;99.90
5972;DHT22;3012;49.944;8.454;2024-03-17T05:21:02;6.00;99.90
5972;DHT22;3012;49.944;8.454;2024-03-17T05:23:34;6.40;99.90
5972;DHT22;3012;49.944;8.454;2024-03-17T05:26:03;6.30;99.90
5972;DHT22;3012;49.944;8.454;2024-03-17T05:28:31;6.60;99.90
5972;DHT22;3012;49.944;8.454;2024-03-17T05:30:59;6.60;99.90
5972;DHT22;3012;49.944;8.454;2024-03-17T05:33:27;6.70;99.90
5972;DHT22;3012;49.944;8.454;2024-03-17T05:35:56;6.60;99.90
5972;DHT22;3012;49.944;8.454;2024-03-17T05:38:25;6.30;99.90
5972;DHT22;3012;49.944;8.454;2024-03-17T05:44:40;6.60;99.90
5972;DHT22;3012;49.944;8.454;2024-03-17T05:47:17;6.10;99.90
5972;DHT22;3012;49.944;8.454;2024-03-17T05:49:44;6.80;99.90
5972;DHT22;3012;49.944;8.454;2024-03-17T05:52:11;6.60;99.90
5972;DHT22;3012;49.944;8.454;2024-03-17T05:54:38;6.80;99.90
5972;DHT22;3012;49.944;8.454;2024-03-17T05:57:06;6.20;99.90
5972;DHT22;3012;49.944;8.454;2024-03-17T05:59:35;6.80;99.90
5972;DHT22;3012;49.944;8.454;2024-03-17T06:02:03;6.90;99.90
5972;DHT22;3012;49.944;8.454;2024-03-17T06:04:30;6.20;99.90
5972;DHT22;3012;49.944;8.454;2024-03-17T06:06:57;6.50;99.90
5972;DHT22;3012;49.944;8.454;2024-03-17T06:09:29;7.20;99.90
5972;DHT22;3012;49.944;8.454;2024-03-17T06:11:56;6.70;99.90
5972;DHT22;3012;49.944;8.454;2024-03-17T06:14:23;6.30;99.90
5972;DHT22;3012;49.944;8.454;2024-03-17T06:16:50;6.90;99.90
5972;DHT22;3012;49.944;8.454;2024-03-17T06:19:18;6.40;99.90
5972;DHT22;3012;49.944;8.454;2024-03-17T06:21:46;6.80;99.90
5972;DHT22;3012;49.944;8.454;2024-03-17T06:24:13;6.90;99.90
5972;DHT22;3012;49.944;8.454;2024-03-17T06:26:41;6.70;99.90
5972;DHT22;3012;49.944;8.454;2024-03-17T06:29:08;6.50;99.90
5972;DHT22;3012;49.944;8.454;2024-03-17T06:31:39;7.40;99.90
5972;DHT22;3012;49.944;8.454;2024-03-17T06:34:06;6.70;99.90
5972;DHT22;3012;49.944;8.454;2024-03-17T06:36:57;6.20;99.90
5972;DHT22;3012;49.944;8.454;2024-03-17T06:39:39;6.60;99.90
5972;DHT22;3012;49.944;8.454;2024-03-17T06:42:09;6.70;99.90
5972;DHT22;3012;49.944;8.454;2024-03-17T06:44:36;6.40;99.90
5972;DHT22;3012;49.944;8.454;2024-03-17T06:47:05;7.00;99.90
5972;DHT22;3012;49.944;8.454;2024-03-17T06:49:32;7.10;99.90
5972;DHT22;3012;49.944;8.454;2024-03-17T06:52:02;7.30;99.90
5972;DHT22;3012;49.944;8.454;2024-03-17T06:54:29;7.30;99.90
5972;DHT22;3012;49.944;8.454;2024-03-17T06:56:58;7.80;99.90
5972;DHT22;3012;49.944;8.454;2024-03-17T06:59:25;7.50;99.90
5972;DHT22;3012;49.944;8.454;2024-03-17T07:01:52;6.80;99.90
5972;DHT22;3012;49.944;8.454;2024-03-17T07:04:20;8.10;99.90
5972;DHT22;3012;49.944;8.454;2024-03-17T07:06:48;7.20;99.90
5972;DHT22;3012;49.944;8.454;2024-03-17T07:09:17;8.10;99.90
5972;DHT22;3012;49.944;8.454;2024-03-17T07:11:44;7.50;99.90
5972;DHT22;3012;49.944;8.454;2024-03-17T07:14:12;7.10;99.90
5972;DHT22;3012;49.944;8.454;2024-03-17T07:16:39;7.20;99.90
5972;DHT22;3012;49.944;8.454;2024-03-17T07:19:06;8.30;99.90
5972;DHT22;3012;49.944;8.454;2024-03-17T07:21:33;8.00;99.90
5972;DHT22;3012;49.944;8.454;2024-03-17T07:24:01;7.80;99.90
5972;DHT22;3012;49.944;8.454;2024-03-17T07:26:31;8.00;99.90
5972;DHT22;3012;49.944;8.454;2024-03-17T07:28:58;8.10;99.90
5972;DHT22;3012;49.944;8.454;2024-03-17T07:31:26;8.20;99.90
5972;DHT22;3012;49.944;8.454;2024-03-17T07:34:03;7.80;99.90
5972;DHT22;3012;49.944;8.454;2024-03-17T07:36:37;8.30;99.90
5972;DHT22;3012;49.944;8.454;2024-03-17T07:39:05;7.90;99.90
5972;DHT22;3012;49.944;8.454;2024-03-17T07:41:46;8.10;99.90
5972;DHT22;3012;49.944;8.454;2024-03-17T07:44:23;8.20;99.90
5972;DHT22;3012;49.944;8.454;2024-03-17T07:47:20;8.10;99.90
5972;DHT22;3012;49.944;8.454;2024-03-17T07:49:47;8.10;99.90
5972;DHT22;3012;49.944;8.454;2024-03-17T07:52:14;8.10;99.90
5972;DHT22;3012;49.944;8.454;2024-03-17T07:54:45;8.40;99.90
5972;DHT22;3012;49.944;8.454;2024-03-17T07:57:14;8.10;99.90
5972;DHT22;3012;49.944;8.454;2024-03-17T07:59:42;8.80;99.90
5972;DHT22;3012;49.944;8.454;2024-03-17T08:02:14;8.20;99.90
5972;DHT22;3012;49.944;8.454;2024-03-17T08:04:41;9.00;99.90
5972;DHT22;3012;49.944;8.454;2024-03-17T08:07:11;8.80;99.90
5972;DHT22;3012;49.944;8.454;2024-03-17T08:09:38;8.50;99.90
5972;DHT22;3012;49.944;8.454;2024-03-17T08:12:06;9.30;99.90
5972;DHT22;3012;49.944;8.454;2024-03-17T08:14:34;9.70;99.90
5972;DHT22;3012;49.944;8.454;2024-03-17T08:17:02;9.50;99.90
5972;DHT22;3012;49.944;8.454;2024-03-17T08:19:29;9.90;99.90
5972;DHT22;3012;49.944;8.454;2024-03-17T08:21:57;10.40;99.90
5972;DHT22;3012;49.944;8.454;2024-03-17T08:24:24;9.80;99.90
5972;DHT22;3012;49.944;8.454;2024-03-17T08:26:51;10.60;99.90
5972;DHT22;3012;49.944;8.454;2024-03-17T08:29:18;10.50;99.90
5972;DHT22;3012;49.944;8.454;2024-03-17T08:31:47;10.80;99.90
5972;DHT22;3012;49.944;8.454;2024-03-17T08:34:16;10.80;99.90
5972;DHT22;3012;49.944;8.454;2024-03-17T08:36:43;10.50;99.90
5972;DHT22;3012;49.944;8.454;2024-03-17T08:39:10;11.30;99.90
5972;DHT22;3012;49.944;8.454;2024-03-17T08:41:39;11.50;99.90
5972;DHT22;3012;49.944;8.454;2024-03-17T08:44:07;12.20;99.90
5972;DHT22;3012;49.944;8.454;2024-03-17T08:46:34;12.20;99.90
5972;DHT22;3012;49.944;8.454;2024-03-17T08:49:02;12.60;99.90
5972;DHT22;3012;49.944;8.454;2024-03-17T08:51:30;12.30;99.90
5972;DHT22;3012;49.944;8.454;2024-03-17T08:53:58;12.80;99.90
5972;DHT22;3012;49.944;8.454;2024-03-17T08:56:26;12.90;99.90
5972;DHT22;3012;49.944;8.454;2024-03-17T08:58:53;12.60;99.90
5972;DHT22;3012;49.944;8.454;2024-03-17T09:01:20;12.70;99.90
5972;DHT22;3012;49.944;8.454;2024-03-17T09:03:48;13.20;99.90
5972;DHT22;3012;49.944;8.454;2024-03-17T09:06:19;13.40;99.90
5972;DHT22;3012;49.944;8.454;2024-03-17T09:08:48;13.50;99.90
5972;DHT22;3012;49.944;8.454;2024-03-17T09:11:15;12.90;99.90
5972;DHT22;3012;49.944;8.454;2024-03-17T09:13:42;12.80;99.90
5972;DHT22;3012;49.944;8.454;2024-03-17T09:16:10;12.80;99.90
5972;DHT22;3012;49.944;8.454;2024-03-17T09:18:39;12.90;99.90
5972;DHT22;3012;49.944;8.454;2024-03-17T09:21:07;13.50;99.90
5972;DHT22;3012;49.944;8.454;2024-03-17T09:23:37;13.40;99.90
5972;DHT22;3012;49.944;8.454;2024-03-17T09:26:07;12.80;99.90
5972;DHT22;3012;49.944;8.454;2024-03-17T09:28:35;13.70;99.90
5972;DHT22;3012;49.944;8.454;2024-03-17T09:31:03;13.60;99.90
5972;DHT22;3012;49.944;8.454;2024-03-17T09:33:33;13.60;99.00
5972;DHT22;3012;49.944;8.454;2024-03-17T09:36:02;14.10;98.50
5972;DHT22;3012;49.944;8.454;2024-03-17T09:38:32;14.10;98.60
5972;DHT22;3012;49.944;8.454;2024-03-17T09:41:01;14.20;97.20
5972;DHT22;3012;49.944;8.454;2024-03-17T09:43:29;14.00;97.80
5972;DHT22;3012;49.944;8.454;2024-03-17T09:45:58;14.40;97.80
5972;DHT22;3012;49.944;8.454;2024-03-17T09:48:27;13.80;96.40
5972;DHT22;3012;49.944;8.454;2024-03-17T09:50:56;14.30;96.50
5972;DHT22;3012;49.944;8.454;2024-03-17T09:53:24;14.40;95.60
5972;DHT22;3012;49.944;8.454;2024-03-17T09:55:54;14.40;93.80
5972;DHT22;3012;49.944;8.454;2024-03-17T09:58:24;14.10;92.80
5972;DHT22;3012;49.944;8.454;2024-03-17T10:00:52;14.20;93.30
5972;DHT22;3012;49.944;8.454;2024-03-17T10:03:42;14.40;92.10
5972;DHT22;3012;49.944;8.454;2024-03-17T10:06:11;15.40;90.40
5972;DHT22;3012;49.944;8.454;2024-03-17T10:08:43;14.90;89.30
5972;DHT22;3012;49.944;8.454;2024-03-17T10:11:10;15.30;89.00
5972;DHT22;3012;49.944;8.454;2024-03-17T10:13:41;15.30;88.80
5972;DHT22;3012;49.944;8.454;2024-03-17T10:16:21;15.60;88.80
5972;DHT22;3012;49.944;8.454;2024-03-17T10:18:49;16.20;88.80
5972;DHT22;3012;49.944;8.454;2024-03-17T10:21:26;16.90;86.80
5972;DHT22;3012;49.944;8.454;2024-03-17T10:24:05;17.00;81.70
5972;DHT22;3012;49.944;8.454;2024-03-17T10:26:36;17.20;80.80
5972;DHT22;3012;49.944;8.454;2024-03-17T10:29:04;17.30;79.80
5972;DHT22;3012;49.944;8.454;2024-03-17T10:31:32;17.90;80.20
5972;DHT22;3012;49.944;8.454;2024-03-17T10:34:02;17.50;78.10
5972;DHT22;3012;49.944;8.454;2024-03-17T10:36:30;17.20;77.70
5972;DHT22;3012;49.944;8.454;2024-03-17T10:38:57;17.00;76.80
5972;DHT22;3012;49.944;8.454;2024-03-17T10:41:26;17.30;79.50
5972;DHT22;3012;49.944;8.454;2024-03-17T10:43:54;17.40;77.80
5972;DHT22;3012;49.944;8.454;2024-03-17T10:46:25;17.40;77.90
5972;DHT22;3012;49.944;8.454;2024-03-17T10:48:53;16.10;76.50
5972;DHT22;3012;49.944;8.454;2024-03-17T10:51:20;16.50;79.10
5972;DHT22;3012;49.944;8.454;2024-03-17T10:53:48;15.60;80.70
5972;DHT22;3012;49.944;8.454;2024-03-17T10:56:19;14.60;81.50
5972;DHT22;3012;49.944;8.454;2024-03-17T10:58:50;14.70;81.20
5972;DHT22;3012;49.944;8.454;2024-03-17T11:01:24;15.20;82.20
5972;DHT22;3012;49.944;8.454;2024-03-17T11:03:51;15.20;82.20
5972;DHT22;3012;49.944;8.454;2024-03-17T11:06:19;16.10;84.00
5972;DHT22;3012;49.944;8.454;2024-03-17T11:08:47;15.70;82.70
5972;DHT22;3012;49.944;8.454;2024-03-17T11:11:35;15.80;84.80
5972;DHT22;3012;49.944;8.454;2024-03-17T11:14:16;15.80;84.40
5972;DHT22;3012;49.944;8.454;2024-03-17T11:16:46;16.10;83.30
5972;DHT22;3012;49.944;8.454;2024-03-17T11:19:15;16.60;83.20
5972;DHT22;3012;49.944;8.454;2024-03-17T11:21:43;17.30;82.70
5972;DHT22;3012;49.944;8.454;2024-03-17T11:24:20;17.70;79.40
5972;DHT22;3012;49.944;8.454;2024-03-17T11:26:48;19.10;77.30
5972;DHT22;3012;49.944;8.454;2024-03-17T11:29:29;20.20;73.90
5972;DHT22;3012;49.944;8.454;2024-03-17T11:31:59;21.60;71.40
5972;DHT22;3012;49.944;8.454;2024-03-17T11:34:29;22.90;67.80
5972;DHT22;3012;49.944;8.454;2024-03-17T11:36:55;24.00;62.50
5972;DHT22;3012;49.944;8.454;2024-03-17T11:39:47;24.60;57.20
5972;DHT22;3012;49.944;8.454;2024-03-17T11:42:15;24.30;55.90
5972;DHT22;3012;49.944;8.454;2024-03-17T11:44:43;24.60;54.60
5972;DHT22;3012;49.944;8.454;2024-03-17T11:47:13;25.10;53.90
5972;DHT22;3012;49.944;8.454;2024-03-17T11:49:43;25.70;52.20
5972;DHT22;3012;49.944;8.454;2024-03-17T11:52:11;24.70;50.90
5972;DHT22;3012;49.944;8.454;2024-03-17T11:54:41;24.20;53.50
5972;DHT22;3012;49.944;8.454;2024-03-17T11:57:08;23.70;52.40
5972;DHT22;3012;49.944;8.454;2024-03-17T11:59:36;23.60;53.50
5972;DHT22;3012;49.944;8.454;2024-03-17T12:02:10;22.40;53.50
5972;DHT22;3012;49.944;8.454;2024-03-17T12:04:43;21.30;55.40
5972;DHT22;3012;49.944;8.454;2024-03-17T12:07:14;20.70;55.50
5972;DHT22;3012;49.944;8.454;2024-03-17T12:09:42;20.50;58.10
5972;DHT22;3012;49.944;8.454;2024-03-17T12:12:11;20.00;56.60
5972;DHT22;3012;49.944;8.454;2024-03-17T12:14:46;19.30;58.20
5972;DHT22;3012;49.944;8.454;2024-03-17T12:17:15;19.60;60.00
5972;DHT22;3012;49.944;8.454;2024-03-17T12:19:46;19.30;59.80
5972;DHT22;3012;49.944;8.454;2024-03-17T12:22:17;19.10;59.60
5972;DHT22;3012;49.944;8.454;2024-03-17T12:24:49;19.40;60.80
5972;DHT22;3012;49.944;8.454;2024-03-17T12:27:19;18.70;59.90
5972;DHT22;3012;49.944;8.454;2024-03-17T12:29:46;19.70;60.60
5972;DHT22;3012;49.944;8.454;2024-03-17T12:32:17;20.30;58.70
5972;DHT22;3012;49.944;8.454;2024-03-17T12:34:51;20.50;57.50
5972;DHT22;3012;49.944;8.454;2024-03-17T12:37:20;20.60;57.70
5972;DHT22;3012;49.944;8.454;2024-03-17T12:39:49;20.70;57.80
5972;DHT22;3012;49.944;8.454;2024-03-17T12:42:22;20.10;57.70
5972;DHT22;3012;49.944;8.454;2024-03-17T12:44:50;19.30;58.70
5972;DHT22;3012;49.944;8.454;2024-03-17T12:47:20;18.60;59.80
5972;DHT22;3012;49.944;8.454;2024-03-17T12:49:50;18.00;61.50
5972;DHT22;3012;49.944;8.454;2024-03-17T12:52:19;18.40;63.60
5972;DHT22;3012;49.944;8.454;2024-03-17T12:54:56;17.30;63.00
5972;DHT22;3012;49.944;8.454;2024-03-17T12:57:45;17.30;64.30
5972;DHT22;3012;49.944;8.454;2024-03-17T13:00:30;17.40;65.20
5972;DHT22;3012;49.944;8.454;2024-03-17T13:03:00;16.90;65.20
5972;DHT22;3012;49.944;8.454;2024-03-17T13:05:36;16.90;65.40
5972;DHT22;3012;49.944;8.454;2024-03-17T13:08:04;16.90;66.60
5972;DHT22;3012;49.944;8.454;2024-03-17T13:10:38;16.80;66.50
5972;DHT22;3012;49.944;8.454;2024-03-17T13:13:09;16.80;67.60
5972;DHT22;3012;49.944;8.454;2024-03-17T13:15:40;16.90;67.90
5972;DHT22;3012;49.944;8.454;2024-03-17T13:18:09;16.40;68.50
5972;DHT22;3012;49.944;8.454;2024-03-17T13:20:39;16.60;68.70
5972;DHT22;3012;49.944;8.454;2024-03-17T13:23:08;16.40;68.10
5972;DHT22;3012;49.944;8.454;2024-03-17T13:25:36;16.90;68.20
5972;DHT22;3012;49.944;8.454;2024-03-17T13:28:04;17.00;69.50
5972;DHT22;3012;49.944;8.454;2024-03-17T13:30:34;17.10;68.40
5972;DHT22;3012;49.944;8.454;2024-03-17T13:33:03;17.00;66.80
5972;DHT22;3012;49.944;8.454;2024-03-17T13:35:37;17.20;66.60
5972;DHT22;3012;49.944;8.454;2024-03-17T13:38:07;17.60;67.90
5972;DHT22;3012;49.944;8.454;2024-03-17T13:40:35;17.90;67.80
5972;DHT22;3012;49.944;8.454;2024-03-17T13:43:04;18.20;65.90
5972;DHT22;3012;49.944;8.454;2024-03-17T13:45:38;18.70;66.10
5972;DHT22;3012;49.944;8.454;2024-03-17T13:48:06;18.80;66.10
5972;DHT22;3012;49.944;8.454;2024-03-17T13:50:37;18.80;64.70
5972;DHT22;3012;49.944;8.454;2024-03-17T13:53:07;18.10;64.90
5972;DHT22;3012;49.944;8.454;2024-03-17T13:55:34;17.80;65.50
5972;DHT22;3012;49.944;8.454;2024-03-17T13:58:02;17.80;67.40
5972;DHT22;3012;49.944;8.454;2024-03-17T14:03:50;16.80;69.50
5972;DHT22;3012;49.944;8.454;2024-03-17T14:06:17;16.80;69.70
5972;DHT22;3012;49.944;8.454;2024-03-17T14:08:46;16.60;70.80
5972;DHT22;3012;49.944;8.454;2024-03-17T14:11:14;16.10;70.80
5972;DHT22;3012;49.944;8.454;2024-03-17T14:13:42;16.00;71.40
5972;DHT22;3012;49.944;8.454;2024-03-17T14:16:12;16.00;72.60
5972;DHT22;3012;49.944;8.454;2024-03-17T14:18:39;15.80;73.10
5972;DHT22;3012;49.944;8.454;2024-03-17T14:21:06;16.00;73.60
5972;DHT22;3012;49.944;8.454;2024-03-17T14:23:34;15.60;72.80
5972;DHT22;3012;49.944;8.454;2024-03-17T14:26:03;15.40;73.60
5972;DHT22;3012;49.944;8.454;2024-03-17T14:28:30;15.10;74.50
5972;DHT22;3012;49.944;8.454;2024-03-17T14:30:57;14.80;75.40
5972;DHT22;3012;49.944;8.454;2024-03-17T14:33:25;14.90;76.40
5972;DHT22;3012;49.944;8.454;2024-03-17T14:35:56;14.80;76.40
5972;DHT22;3012;49.944;8.454;2024-03-17T14:38:23;14.20;75.60
5972;DHT22;3012;49.944;8.454;2024-03-17T14:40:51;14.90;78.20
5972;DHT22;3012;49.944;8.454;2024-03-17T14:43:19;14.80;77.70
5972;DHT22;3012;49.944;8.454;2024-03-17T14:45:48;15.10;77.20
5972;DHT22;3012;49.944;8.454;2024-03-17T14:48:23;14.20;76.90
5972;DHT22;3012;49.944;8.454;2024-03-17T14:50:52;14.70;77.50
5972;DHT22;3012;49.944;8.454;2024-03-17T14:53:23;14.30;77.40
5972;DHT22;3012;49.944;8.454;2024-03-17T14:55:51;14.90;78.50
5972;DHT22;3012;49.944;8.454;2024-03-17T14:58:21;14.60;77.60
5972;DHT22;3012;49.944;8.454;2024-03-17T15:00:49;14.50;78.30
5972;DHT22;3012;49.944;8.454;2024-03-17T15:03:16;14.60;78.50
5972;DHT22;3012;49.944;8.454;2024-03-17T15:05:44;14.40;78.80
5972;DHT22;3012;49.944;8.454;2024-03-17T15:08:12;14.40;78.70
5972;DHT22;3012;49.944;8.454;2024-03-17T15:10:40;14.40;79.60
5972;DHT22;3012;49.944;8.454;2024-03-17T15:13:08;15.10;80.20
5972;DHT22;3012;49.944;8.454;2024-03-17T15:15:37;14.90;79.90
5972;DHT22;3012;49.944;8.454;2024-03-17T15:18:05;14.50;79.20
5972;DHT22;3012;49.944;8.454;2024-03-17T15:20:34;14.60;79.00
5972;DHT22;3012;49.944;8.454;2024-03-17T15:23:01;14.40;77.90
5972;DHT22;3012;49.944;8.454;2024-03-17T15:25:30;14.90;78.60
5972;DHT22;3012;49.944;8.454;2024-03-17T15:27:57;15.00;78.30
5972;DHT22;3012;49.944;8.454;2024-03-17T15:30:29;14.70;78.60
5972;DHT22;3012;49.944;8.454;2024-03-17T15:32:58;14.20;77.90
5972;DHT22;3012;49.944;8.454;2024-03-17T15:35:28;14.90;78.80
5972;DHT22;3012;49.944;8.454;2024-03-17T15:37:56;15.10;78.90
5972;DHT22;3012;49.944;8.454;2024-03-17T15:40:24;14.90;77.70
5972;DHT22;3012;49.944;8.454;2024-03-17T15:42:51;15.00;77.50
5972;DHT22;3012;49.944;8.454;2024-03-17T15:45:20;14.60;76.80
5972;DHT22;3012;49.944;8.454;2024-03-17T15:47:50;15.10;78.00
5972;DHT22;3012;49.944;8.454;2024-03-17T15:50:21;15.00;78.00
5972;DHT22;3012;49.944;8.454;2024-03-17T15:52:48;15.00;78.90
5972;DHT22;3012;49.944;8.454;2024-03-17T15:55:18;14.90;79.20
5972;DHT22;3012;49.944;8.454;2024-03-17T15:57:45;14.40;79.50
5972;DHT22;3012;49.944;8.454;2024-03-17T16:00:14;14.60;79.80
5972;DHT22;3012;49.944;8.454;2024-03-17T16:02:44;14.90;79.90
5972;DHT22;3012;49.944;8.454;2024-03-17T16:05:13;14.60;79.50
5972;DHT22;3012;49.944;8.454;2024-03-17T16:07:45;14.60;79.60
5972;DHT22;3012;49.944;8.454;2024-03-17T16:10:18;14.40;80.90
5972;DHT22;3012;49.944;8.454;2024-03-17T16:12:48;13.90;80.70
5972;DHT22;3012;49.944;8.454;2024-03-17T16:15:16;14.10;81.10
5972;DHT22;3012;49.944;8.454;2024-03-17T16:17:44;14.00;81.50
5972;DHT22;3012;49.944;8.454;2024-03-17T16:23:14;13.70;83.80
5972;DHT22;3012;49.944;8.454;2024-03-17T16:25:41;13.60;84.20
5972;DHT22;3012;49.944;8.454;2024-03-17T16:28:10;13.10;83.30
5972;DHT22;3012;49.944;8.454;2024-03-17T16:30:38;13.60;85.10
5972;DHT22;3012;49.944;8.454;2024-03-17T16:33:06;13.70;85.10
5972;DHT22;3012;49.944;8.454;2024-03-17T16:35:34;14.10;85.70
5972;DHT22;3012;49.944;8.454;2024-03-17T16:38:21;13.70;85.20